Time;durP1;ratioP1;P1;durP2;ratioP2;P2;SDS_P1;SDS_P2;PMS_P1;PMS_P2;Temp;Humidity;BMP_temperature;BMP_pressure;BME280_temperature;BME280_humidity;BME280_pressure;Samples;Min_cycle;Max_cycle;Signal;HPM_P1;HPM_P2
2022/05/20 00:00:06;;;;;;;77.60;44.83;;;;;;;;;;5078351;28;20028;-71
2022/05/20 00:02:32;;;;;;;78.90;46.58;;;;;;;;;;5081613;28;20032;-72
2022/05/20 00:04:59;;;;;;;95.68;51.83;;;;;;;;;;5077866;28;20020;-72
2022/05/20 00:07:26;;;;;;;88.68;50.95;;;;;;;;;;5076208;28;20097;-72
2022/05/20 00:09:52;;;;;;;99.55;53.00;;;;;;;;;;5077084;28;20077;-73
2022/05/20 00:12:19;;;;;;;77.97;47.05;;;;;;;;;;5079458;28;20056;-72
2022/05/20 00:14:46;;;;;;;79.32;46.95;;;;;;;;;;5079501;28;20039;-73
2022/05/20 00:17:12;;;;;;;80.82;46.25;;;;;;;;;;5077361;28;20031;-72
2022/05/20 00:19:39;;;;;;;87.43;50.50;;;;;;;;;;5081935;28;20064;-72
2022/05/20 00:22:07;;;;;;;62.33;41.15;;;;;;;;;;5062468;28;20036;-71
2022/05/20 00:25:45;;;;;;;88.00;48.55;;;;;;;;;;5081123;28;20085;-71
2022/05/20 00:27:20;;;;;;;91.90;51.55;;;;;;;;;;5080627;28;20876;-71
2022/05/20 00:29:46;;;;;;;88.15;52.10;;;;;;;;;;5066225;28;20039;-70
2022/05/20 00:32:12;;;;;;;82.68;48.75;;;;;;;;;;5079328;28;20124;-72
2022/05/20 00:34:38;;;;;;;79.03;46.88;;;;;;;;;;5082432;28;20733;-72
2022/05/20 00:37:04;;;;;;;87.97;50.50;;;;;;;;;;5081345;28;20036;-73
2022/05/20 00:39:30;;;;;;;87.97;48.97;;;;;;;;;;5084587;28;20036;-72
2022/05/20 00:41:56;;;;;;;97.05;55.25;;;;;;;;;;5064710;28;20024;-72
2022/05/20 00:44:22;;;;;;;116.70;61.97;;;;;;;;;;5083707;28;20147;-71
2022/05/20 00:46:48;;;;;;;115.75;63.17;;;;;;;;;;5083487;28;20048;-72
2022/05/20 00:49:15;;;;;;;117.57;65.55;;;;;;;;;;5084960;28;20473;-73
2022/05/20 00:51:46;;;;;;;116.10;64.30;;;;;;;;;;5082972;28;20875;-73
2022/05/20 00:54:15;;;;;;;116.60;66.38;;;;;;;;;;5084988;28;20052;-78
2022/05/20 00:56:56;;;;;;;112.10;64.95;;;;;;;;;;5082923;28;20039;-73
2022/05/20 00:59:25;;;;;;;107.82;62.17;;;;;;;;;;5082065;28;20122;-72
2022/05/20 01:01:52;;;;;;;124.65;65.55;;;;;;;;;;5084393;28;20481;-72
2022/05/20 01:04:18;;;;;;;112.82;62.80;;;;;;;;;;5085831;28;20028;-72
2022/05/20 01:06:45;;;;;;;113.20;62.35;;;;;;;;;;5085190;28;20489;-71
2022/05/20 01:09:11;;;;;;;100.55;56.97;;;;;;;;;;5084999;28;20035;-72
2022/05/20 01:11:38;;;;;;;96.53;54.40;;;;;;;;;;5081767;28;20492;-72
2022/05/20 01:14:06;;;;;;;97.78;54.80;;;;;;;;;;5082450;28;20108;-72
2022/05/20 01:16:32;;;;;;;110.85;55.55;;;;;;;;;;5083624;28;20039;-72
2022/05/20 01:19:00;;;;;;;100.30;54.33;;;;;;;;;;5084439;28;20089;-72
2022/05/20 01:21:26;;;;;;;108.30;57.80;;;;;;;;;;5083460;28;20139;-72
2022/05/20 01:23:59;;;;;;;124.03;64.32;;;;;;;;;;5084998;28;20024;-72
2022/05/20 01:26:24;;;;;;;629.22;78.60;;;;;;;;;;5082618;28;20032;-72
2022/05/20 01:28:51;;;;;;;168.48;52.67;;;;;;;;;;5082377;28;20032;-71
2022/05/20 01:31:17;;;;;;;80.68;47.92;;;;;;;;;;5079317;28;20044;-71
2022/05/20 01:33:48;;;;;;;90.03;52.15;;;;;;;;;;5087022;28;20089;-70
2022/05/20 01:36:16;;;;;;;106.22;55.35;;;;;;;;;;5077465;28;20473;-72
2022/05/20 01:38:42;;;;;;;106.28;57.40;;;;;;;;;;5083691;28;20024;-71
2022/05/20 01:41:10;;;;;;;103.80;55.22;;;;;;;;;;5080205;28;20097;-71
2022/05/20 01:43:55;;;;;;;104.38;57.38;;;;;;;;;;5081013;28;20026;-72
2022/05/20 01:46:39;;;;;;;116.68;61.53;;;;;;;;;;5076553;28;20081;-73
2022/05/20 01:49:26;;;;;;;127.93;64.78;;;;;;;;;;5081849;28;20028;-72
2022/05/20 01:52:01;;;;;;;101.10;56.85;;;;;;;;;;5081063;28;20036;-73
2022/05/20 01:54:45;;;;;;;83.22;49.85;;;;;;;;;;5081745;28;20212;-71
2022/05/20 01:57:14;;;;;;;75.10;47.05;;;;;;;;;;5081505;28;20079;-73
2022/05/20 01:59:43;;;;;;;63.55;43.85;;;;;;;;;;5076466;28;20020;-72
2022/05/20 02:02:11;;;;;;;73.75;46.63;;;;;;;;;;5081530;28;20089;-72
2022/05/20 02:04:45;;;;;;;68.00;44.50;;;;;;;;;;5077156;28;20032;-73
2022/05/20 02:07:16;;;;;;;98.43;53.85;;;;;;;;;;5080404;28;20089;-72
2022/05/20 02:10:08;;;;;;;95.03;54.70;;;;;;;;;;5081453;28;20032;-72
2022/05/20 02:12:37;;;;;;;98.47;53.60;;;;;;;;;;5078655;28;20543;-74
2022/05/20 02:15:22;;;;;;;92.50;52.50;;;;;;;;;;5079411;28;20052;-71
2022/05/20 02:17:52;;;;;;;90.45;48.70;;;;;;;;;;5078875;28;20047;-72
2022/05/20 02:20:26;;;;;;;100.50;51.83;;;;;;;;;;5077084;28;20085;-71
2022/05/20 02:22:54;;;;;;;72.95;46.10;;;;;;;;;;5080359;28;20037;-71
2022/05/20 02:25:21;;;;;;;88.25;47.85;;;;;;;;;;5079562;28;20035;-71
2022/05/20 02:27:49;;;;;;;69.72;44.35;;;;;;;;;;5080625;28;20016;-71
2022/05/20 02:30:18;;;;;;;85.55;49.55;;;;;;;;;;5081482;28;20117;-71
2022/05/20 02:32:46;;;;;;;78.03;45.67;;;;;;;;;;5078855;28;20034;-70
2022/05/20 02:35:12;;;;;;;97.78;51.50;;;;;;;;;;5078689;28;20027;-70
2022/05/20 02:37:39;;;;;;;94.82;50.88;;;;;;;;;;5078311;28;20059;-70
2022/05/20 02:40:06;;;;;;;133.88;64.38;;;;;;;;;;5074642;28;20036;-72
2022/05/20 02:42:32;;;;;;;148.43;75.32;;;;;;;;;;5079615;28;20027;-71
2022/05/20 02:44:59;;;;;;;161.65;81.45;;;;;;;;;;5074586;28;20016;-72
2022/05/20 02:47:26;;;;;;;114.80;62.20;;;;;;;;;;5079756;28;20042;-71
2022/05/20 02:49:52;;;;;;;92.82;53.90;;;;;;;;;;5075464;28;20040;-71
2022/05/20 02:52:18;;;;;;;173.18;52.40;;;;;;;;;;5080233;28;20042;-72
2022/05/20 02:54:44;;;;;;;148.55;51.60;;;;;;;;;;5079222;28;20047;-72
2022/05/20 02:57:10;;;;;;;149.55;51.97;;;;;;;;;;5068068;28;20791;-71
2022/05/20 03:05:06;;;;;;;346.60;57.58;;;;;;;;;;5077785;28;20051;-71
2022/05/20 03:07:32;;;;;;;369.05;67.15;;;;;;;;;;5077949;28;20052;-71
2022/05/20 03:10:00;;;;;;;315.85;66.13;;;;;;;;;;5079095;28;20059;-71
2022/05/20 03:12:26;;;;;;;367.08;70.82;;;;;;;;;;5077977;28;20505;-71
2022/05/20 03:14:53;;;;;;;254.38;64.75;;;;;;;;;;5080854;28;20066;-72
2022/05/20 03:17:19;;;;;;;155.93;62.13;;;;;;;;;;5078850;28;20067;-72
2022/05/20 03:19:45;;;;;;;209.65;66.78;;;;;;;;;;5075316;28;20078;-72
2022/05/20 03:22:11;;;;;;;276.55;72.30;;;;;;;;;;5080447;28;20052;-71
2022/05/20 03:24:37;;;;;;;138.35;62.13;;;;;;;;;;5079119;28;20031;-71
2022/05/20 03:27:04;;;;;;;143.18;66.63;;;;;;;;;;5076417;28;20032;-70
2022/05/20 03:29:32;;;;;;;151.05;66.38;;;;;;;;;;5083091;28;20047;-70
2022/05/20 03:31:58;;;;;;;143.93;63.08;;;;;;;;;;5083359;28;20799;-71
2022/05/20 03:34:24;;;;;;;148.13;62.22;;;;;;;;;;5080699;28;20081;-71
2022/05/20 03:36:50;;;;;;;125.38;58.10;;;;;;;;;;5077076;28;20859;-71
2022/05/20 03:39:18;;;;;;;134.77;64.72;;;;;;;;;;5078567;28;20036;-71
2022/05/20 03:41:44;;;;;;;121.38;58.35;;;;;;;;;;5076559;28;20085;-71
2022/05/20 03:44:12;;;;;;;112.85;54.88;;;;;;;;;;5079772;28;20045;-70
2022/05/20 03:46:42;;;;;;;107.40;53.03;;;;;;;;;;5081475;28;20114;-71
2022/05/20 03:49:10;;;;;;;100.22;51.42;;;;;;;;;;5076581;28;20032;-70
2022/05/20 03:51:37;;;;;;;110.00;54.25;;;;;;;;;;5075376;28;20024;-70
2022/05/20 03:54:04;;;;;;;111.22;55.58;;;;;;;;;;5081080;28;20684;-72
2022/05/20 03:56:30;;;;;;;130.63;59.33;;;;;;;;;;5079018;28;20074;-72
2022/05/20 03:58:56;;;;;;;147.05;62.45;;;;;;;;;;5083525;28;20071;-72
2022/05/20 04:04:07;;;;;;;171.52;72.63;;;;;;;;;;5082933;28;20067;-71
2022/05/20 04:06:33;;;;;;;190.27;77.90;;;;;;;;;;5082817;28;20060;-72
2022/05/20 04:08:59;;;;;;;195.73;77.20;;;;;;;;;;5064558;28;20062;-71
2022/05/20 04:11:28;;;;;;;186.00;75.40;;;;;;;;;;5079398;28;20111;-70
2022/05/20 04:13:54;;;;;;;173.52;75.38;;;;;;;;;;5082970;28;20105;-71
2022/05/20 04:16:20;;;;;;;152.65;70.20;;;;;;;;;;5084853;28;20695;-71
2022/05/20 04:18:47;;;;;;;154.82;69.35;;;;;;;;;;5084352;28;20040;-72
2022/05/20 04:21:14;;;;;;;140.60;64.18;;;;;;;;;;5086169;28;20051;-71
2022/05/20 04:23:40;;;;;;;156.60;64.07;;;;;;;;;;5083138;28;20477;-72
2022/05/20 04:26:06;;;;;;;125.10;57.30;;;;;;;;;;5081712;28;20054;-71
2022/05/20 04:28:33;;;;;;;126.10;57.97;;;;;;;;;;5080500;28;20789;-71
2022/05/20 04:31:01;;;;;;;125.85;57.72;;;;;;;;;;5084590;28;20020;-71
2022/05/20 04:33:27;;;;;;;125.07;58.40;;;;;;;;;;5084903;28;20067;-71
2022/05/20 04:35:53;;;;;;;146.35;62.45;;;;;;;;;;5079236;28;20024;-72
2022/05/20 04:38:21;;;;;;;146.00;63.60;;;;;;;;;;5081810;28;20048;-72
2022/05/20 04:49:05;;;;;;;92.95;47.65;;;;;;;;;;5081994;28;20047;-71
2022/05/20 04:51:32;;;;;;;93.95;50.45;;;;;;;;;;5078802;28;20119;-71
2022/05/20 04:56:43;;;;;;;111.15;54.33;;;;;;;;;;5081991;28;20044;-71
2022/05/20 04:59:09;;;;;;;91.07;48.85;;;;;;;;;;5082624;28;20026;-72
2022/05/20 05:01:35;;;;;;;71.38;41.03;;;;;;;;;;5083611;28;20036;-72
2022/05/20 05:04:01;;;;;;;58.60;36.28;;;;;;;;;;5078669;28;20040;-69
2022/05/20 05:06:27;;;;;;;48.28;32.42;;;;;;;;;;5078462;28;20032;-69
2022/05/20 05:08:53;;;;;;;48.15;30.00;;;;;;;;;;5084559;28;20040;-70
2022/05/20 05:11:20;;;;;;;45.67;27.73;;;;;;;;;;5081268;28;20433;-71
2022/05/20 05:13:46;;;;;;;32.08;23.98;;;;;;;;;;5081680;28;20045;-70
2022/05/20 05:16:12;;;;;;;31.23;24.02;;;;;;;;;;5083142;28;20434;-70
2022/05/20 05:18:38;;;;;;;28.52;21.40;;;;;;;;;;5082580;28;20028;-70
2022/05/20 05:21:04;;;;;;;30.25;21.13;;;;;;;;;;5084924;28;20108;-70
2022/05/20 05:23:31;;;;;;;28.70;20.90;;;;;;;;;;5079616;28;20031;-69
2022/05/20 05:25:57;;;;;;;31.88;19.23;;;;;;;;;;5079468;28;20032;-70
2022/05/20 05:28:23;;;;;;;24.25;18.75;;;;;;;;;;5075388;28;20027;-69
2022/05/20 05:30:51;;;;;;;29.80;19.80;;;;;;;;;;5079248;28;20040;-70
2022/05/20 05:33:18;;;;;;;24.20;21.33;;;;;;;;;;5081803;28;20061;-68
2022/05/20 05:35:44;;;;;;;31.15;21.88;;;;;;;;;;5078254;28;20039;-70
2022/05/20 05:38:10;;;;;;;26.60;21.23;;;;;;;;;;5076004;28;20036;-70
2022/05/20 05:40:37;;;;;;;27.27;21.63;;;;;;;;;;5078814;28;20016;-69
2022/05/20 05:43:03;;;;;;;34.15;24.70;;;;;;;;;;5083811;28;20116;-69
2022/05/20 05:45:30;;;;;;;36.45;27.52;;;;;;;;;;5083233;28;20024;-70
2022/05/20 05:48:00;;;;;;;33.92;27.90;;;;;;;;;;5081860;28;20112;-69
2022/05/20 05:50:27;;;;;;;36.70;25.52;;;;;;;;;;5085858;28;20032;-70
2022/05/20 05:52:57;;;;;;;32.25;26.00;;;;;;;;;;5081978;28;20493;-70
2022/05/20 05:55:23;;;;;;;36.47;24.83;;;;;;;;;;5078096;28;20445;-71
2022/05/20 05:57:49;;;;;;;31.13;23.45;;;;;;;;;;5076327;28;20175;-69
2022/05/20 06:00:16;;;;;;;31.58;22.98;;;;;;;;;;5077268;28;20077;-69
2022/05/20 06:02:42;;;;;;;33.55;24.10;;;;;;;;;;5085382;28;20079;-69
2022/05/20 06:05:08;;;;;;;28.60;23.05;;;;;;;;;;5081609;28;20028;-71
2022/05/20 06:07:34;;;;;;;29.60;24.17;;;;;;;;;;5082055;28;20088;-71
2022/05/20 06:10:00;;;;;;;33.63;24.70;;;;;;;;;;5079064;28;20049;-70
2022/05/20 06:12:27;;;;;;;31.50;24.48;;;;;;;;;;5078297;28;20060;-70
2022/05/20 06:14:53;;;;;;;33.90;23.80;;;;;;;;;;5073265;28;20027;-70
2022/05/20 06:17:19;;;;;;;32.05;23.63;;;;;;;;;;5077485;28;20176;-71
2022/05/20 06:19:45;;;;;;;32.45;24.10;;;;;;;;;;5084959;28;20124;-71
2022/05/20 06:22:11;;;;;;;32.58;23.85;;;;;;;;;;5086471;28;20066;-71
2022/05/20 06:24:37;;;;;;;32.15;23.38;;;;;;;;;;5082134;28;20505;-69
2022/05/20 06:27:04;;;;;;;31.98;22.15;;;;;;;;;;5086298;28;20028;-69
2022/05/20 06:29:30;;;;;;;27.52;21.13;;;;;;;;;;5087051;28;20448;-70
2022/05/20 06:31:56;;;;;;;24.20;20.83;;;;;;;;;;5089795;28;20119;-70
2022/05/20 06:34:22;;;;;;;27.02;21.00;;;;;;;;;;5083677;28;20064;-70
2022/05/20 06:39:51;;;;;;;25.73;18.50;;;;;;;;;;5084820;28;20069;-70
2022/05/20 06:42:19;;;;;;;25.27;18.55;;;;;;;;;;5088115;28;20081;-68
2022/05/20 06:44:45;;;;;;;27.65;16.20;;;;;;;;;;5089377;28;20106;-71
2022/05/20 06:47:12;;;;;;;19.95;13.27;;;;;;;;;;5089487;28;20036;-70
2022/05/20 06:49:38;;;;;;;21.85;14.30;;;;;;;;;;5079645;28;20435;-71
2022/05/20 06:52:04;;;;;;;19.58;13.30;;;;;;;;;;5079993;28;20024;-71
2022/05/20 06:54:30;;;;;;;22.23;13.18;;;;;;;;;;5083019;28;20374;-69
2022/05/20 06:56:56;;;;;;;29.85;13.35;;;;;;;;;;5084891;28;20541;-81
2022/05/20 06:59:23;;;;;;;17.58;12.70;;;;;;;;;;5085824;28;20036;-80
2022/05/20 07:01:49;;;;;;;19.30;13.00;;;;;;;;;;5084190;28;20054;-77
2022/05/20 07:04:15;;;;;;;24.45;13.05;;;;;;;;;;5091428;28;20035;-79
2022/05/20 07:06:41;;;;;;;21.35;14.05;;;;;;;;;;5088339;28;20036;-80
2022/05/20 07:09:07;;;;;;;20.00;12.55;;;;;;;;;;5074729;28;20038;-76
2022/05/20 07:11:34;;;;;;;18.08;10.90;;;;;;;;;;5083355;28;20031;-78
2022/05/20 07:14:00;;;;;;;17.63;11.27;;;;;;;;;;5079377;28;20036;-78
2022/05/20 07:16:27;;;;;;;20.08;12.55;;;;;;;;;;5079338;28;20227;-78
2022/05/20 07:18:54;;;;;;;16.77;11.55;;;;;;;;;;5083011;28;20028;-79
2022/05/20 07:21:20;;;;;;;20.23;12.13;;;;;;;;;;5085565;28;20020;-78
2022/05/20 07:23:46;;;;;;;19.50;10.95;;;;;;;;;;5080126;28;20078;-78
2022/05/20 07:26:13;;;;;;;16.58;10.75;;;;;;;;;;5081557;28;20165;-78
2022/05/20 07:28:41;;;;;;;14.77;9.88;;;;;;;;;;5083586;28;20145;-77
2022/05/20 07:31:07;;;;;;;15.93;10.65;;;;;;;;;;5080765;28;20039;-80
2022/05/20 07:33:34;;;;;;;19.27;10.93;;;;;;;;;;5089943;28;20118;-79
2022/05/20 07:36:00;;;;;;;13.93;10.18;;;;;;;;;;5087010;28;20106;-79
2022/05/20 07:38:26;;;;;;;18.17;9.88;;;;;;;;;;5084512;28;20342;-79
2022/05/20 07:40:55;;;;;;;17.98;10.50;;;;;;;;;;5079391;28;20028;-78
2022/05/20 07:43:22;;;;;;;14.13;9.20;;;;;;;;;;5085659;28;20043;-78
2022/05/20 07:45:48;;;;;;;12.50;8.40;;;;;;;;;;5083525;28;20107;-66
2022/05/20 07:48:14;;;;;;;15.45;7.75;;;;;;;;;;5083247;28;20111;-66
2022/05/20 07:50:42;;;;;;;10.88;6.80;;;;;;;;;;5080581;28;20115;-66
2022/05/20 07:53:21;;;;;;;15.18;7.22;;;;;;;;;;5082013;28;20020;-66
2022/05/20 07:56:08;;;;;;;10.65;7.30;;;;;;;;;;5084906;28;20032;-66
2022/05/20 07:58:36;;;;;;;11.45;6.90;;;;;;;;;;5081865;28;20039;-66
2022/05/20 08:01:03;;;;;;;12.35;7.28;;;;;;;;;;5092094;28;20028;-67
2022/05/20 08:06:17;;;;;;;12.65;8.52;;;;;;;;;;5087946;28;20417;-67
2022/05/20 08:08:43;;;;;;;19.92;9.75;;;;;;;;;;5083777;28;20036;-67
2022/05/20 08:11:09;;;;;;;16.05;8.43;;;;;;;;;;5095120;28;20066;-67
2022/05/20 08:13:35;;;;;;;10.77;7.10;;;;;;;;;;5082681;28;20664;-67
2022/05/20 08:16:01;;;;;;;11.75;8.30;;;;;;;;;;5085635;28;20047;-67
2022/05/20 08:18:27;;;;;;;16.75;9.60;;;;;;;;;;5087659;28;20369;-68
2022/05/20 08:20:55;;;;;;;10.18;8.02;;;;;;;;;;5086278;28;20092;-67
2022/05/20 08:23:21;;;;;;;12.45;8.20;;;;;;;;;;5089570;28;20250;-67
2022/05/20 08:25:47;;;;;;;17.48;8.63;;;;;;;;;;5079724;28;20032;-66
2022/05/20 08:28:13;;;;;;;12.90;8.18;;;;;;;;;;5083268;28;20028;-75
2022/05/20 08:30:39;;;;;;;15.23;8.85;;;;;;;;;;5079868;28;20019;-67
2022/05/20 08:33:05;;;;;;;16.23;9.10;;;;;;;;;;5081562;28;20028;-66
2022/05/20 08:35:31;;;;;;;12.27;9.30;;;;;;;;;;5083835;28;20072;-66
2022/05/20 08:37:57;;;;;;;17.08;9.35;;;;;;;;;;5080282;28;21746;-66
2022/05/20 08:40:23;;;;;;;14.18;8.75;;;;;;;;;;5080394;28;20039;-66
2022/05/20 08:42:50;;;;;;;15.95;9.70;;;;;;;;;;5083057;28;20045;-67
2022/05/20 08:45:17;;;;;;;12.23;8.75;;;;;;;;;;5084635;28;20028;-67
2022/05/20 08:47:48;;;;;;;17.83;10.20;;;;;;;;;;5088475;28;20088;-66
2022/05/20 08:50:14;;;;;;;;;;;;;;;;;;5084541;28;20024;-67
2022/05/20 08:52:41;;;;;;;15.02;9.00;;;;;;;;;;5084877;28;19908;-67
2022/05/20 08:55:07;;;;;;;14.55;9.50;;;;;;;;;;5084241;28;20112;-66
2022/05/20 08:57:33;;;;;;;18.17;10.20;;;;;;;;;;5085481;28;20417;-66
2022/05/20 09:00:00;;;;;;;15.48;8.80;;;;;;;;;;5087188;28;20020;-66
2022/05/20 09:02:26;;;;;;;16.77;9.10;;;;;;;;;;5082914;28;20081;-69
2022/05/20 09:04:52;;;;;;;14.82;8.90;;;;;;;;;;5085391;28;20020;-68
2022/05/20 09:07:19;;;;;;;14.48;8.75;;;;;;;;;;5084424;28;20044;-71
2022/05/20 09:09:45;;;;;;;15.35;9.02;;;;;;;;;;5085598;28;20039;-66
2022/05/20 09:12:23;;;;;;;14.82;9.05;;;;;;;;;;5084866;28;20051;-66
2022/05/20 09:17:42;;;;;;;13.13;8.68;;;;;;;;;;5086348;28;20460;-67
2022/05/20 09:20:10;;;;;;;17.08;9.73;;;;;;;;;;5081332;28;20663;-67
2022/05/20 09:22:38;;;;;;;20.95;9.05;;;;;;;;;;5079774;28;20038;-68
2022/05/20 09:25:15;;;;;;;13.60;8.25;;;;;;;;;;5077298;28;20057;-67
2022/05/20 09:27:41;;;;;;;13.48;7.20;;;;;;;;;;5081731;28;20027;-67
2022/05/20 09:30:09;;;;;;;14.65;6.55;;;;;;;;;;5080917;28;20032;-67
2022/05/20 09:32:37;;;;;;;13.98;7.97;;;;;;;;;;5086976;28;20096;-67
2022/05/20 09:35:11;;;;;;;15.93;6.22;;;;;;;;;;5087128;28;20679;-68
2022/05/20 09:37:38;;;;;;;13.48;6.57;;;;;;;;;;5088127;28;20928;-67
2022/05/20 09:40:22;;;;;;;10.18;6.07;;;;;;;;;;5087534;28;20104;-67
2022/05/20 09:42:59;;;;;;;16.10;6.70;;;;;;;;;;5078866;28;20030;-67
2022/05/20 09:45:25;;;;;;;12.73;6.80;;;;;;;;;;5080998;28;20114;-67
2022/05/20 09:47:54;;;;;;;11.07;5.55;;;;;;;;;;5081709;28;20031;-66
2022/05/20 09:50:28;;;;;;;12.65;5.80;;;;;;;;;;5083052;28;20039;-66
2022/05/20 09:53:00;;;;;;;8.98;5.97;;;;;;;;;;5072511;28;20036;-68
2022/05/20 09:55:31;;;;;;;13.88;6.95;;;;;;;;;;5081505;28;20572;-67
2022/05/20 09:58:08;;;;;;;15.10;6.60;;;;;;;;;;5080800;28;20024;-67
2022/05/20 10:00:35;;;;;;;13.85;6.35;;;;;;;;;;5075420;28;20032;-68
2022/05/20 10:03:20;;;;;;;11.50;7.10;;;;;;;;;;5083193;28;20477;-67
2022/05/20 10:06:05;;;;;;;14.38;7.45;;;;;;;;;;5081370;28;20029;-67
2022/05/20 10:08:31;;;;;;;12.95;7.30;;;;;;;;;;5079179;28;20127;-67
2022/05/20 10:11:26;;;;;;;14.75;8.32;;;;;;;;;;5080176;28;20027;-66
2022/05/20 10:14:04;;;;;;;12.95;7.60;;;;;;;;;;5064679;28;20055;-67
2022/05/20 10:16:42;;;;;;;15.40;7.70;;;;;;;;;;5078125;28;20485;-66
2022/05/20 10:19:26;;;;;;;11.85;8.05;;;;;;;;;;5087531;28;20016;-66
2022/05/20 10:21:57;;;;;;;15.25;8.73;;;;;;;;;;5078044;28;20545;-66
2022/05/20 10:24:46;;;;;;;13.88;8.13;;;;;;;;;;5078725;28;20056;-68
2022/05/20 10:27:18;;;;;;;13.82;7.78;;;;;;;;;;5070139;28;20039;-66
2022/05/20 10:32:36;;;;;;;15.48;7.68;;;;;;;;;;5078022;28;20035;-65
2022/05/20 10:35:08;;;;;;;15.32;7.10;;;;;;;;;;5087412;28;20211;-67
2022/05/20 10:37:34;;;;;;;11.18;6.38;;;;;;;;;;5083356;28;20477;-67
2022/05/20 10:40:19;;;;;;;12.40;7.32;;;;;;;;;;5082946;28;20020;-67
2022/05/20 10:42:54;;;;;;;11.10;6.90;;;;;;;;;;5086867;28;20020;-65
2022/05/20 10:51:04;;;;;;;11.98;6.32;;;;;;;;;;5090353;28;20515;-65
2022/05/20 10:53:50;;;;;;;13.20;6.57;;;;;;;;;;5099195;28;20036;-65
2022/05/20 10:56:35;;;;;;;10.40;6.60;;;;;;;;;;5091252;28;20039;-66
2022/05/20 10:59:01;;;;;;;14.75;6.85;;;;;;;;;;5094906;28;20228;-67
2022/05/20 11:01:34;;;;;;;13.80;6.53;;;;;;;;;;5090022;28;20024;-67
2022/05/20 11:04:15;;;;;;;14.63;5.88;;;;;;;;;;5086910;28;20031;-67
2022/05/20 11:06:44;;;;;;;14.48;5.88;;;;;;;;;;5082993;28;20110;-67
2022/05/20 11:09:19;;;;;;;8.18;5.38;;;;;;;;;;5087430;28;20469;-67
2022/05/20 11:11:45;;;;;;;11.13;5.70;;;;;;;;;;5090119;28;20050;-67
2022/05/20 11:14:30;;;;;;;9.55;5.90;;;;;;;;;;5088067;28;20040;-67
2022/05/20 11:16:59;;;;;;;10.68;5.88;;;;;;;;;;5080213;28;20097;-67
2022/05/20 11:19:48;;;;;;;10.75;5.60;;;;;;;;;;5100866;28;20035;-67
2022/05/20 11:22:26;;;;;;;8.82;5.50;;;;;;;;;;5050299;28;20115;-67
2022/05/20 11:25:02;;;;;;;15.52;5.97;;;;;;;;;;5091645;28;20038;-66
2022/05/20 11:27:31;;;;;;;9.40;5.13;;;;;;;;;;5085761;28;20492;-67
2022/05/20 11:29:59;;;;;;;11.95;4.63;;;;;;;;;;5087553;28;20206;-68
2022/05/20 11:32:43;;;;;;;12.43;4.90;;;;;;;;;;5086217;28;20047;-67
2022/05/20 11:35:16;;;;;;;23.30;5.80;;;;;;;;;;5095999;28;20519;-68
2022/05/20 11:37:49;;;;;;;19.55;5.57;;;;;;;;;;5083906;28;20040;-65
2022/05/20 11:40:33;;;;;;;11.95;5.25;;;;;;;;;;5086196;28;20034;-66
2022/05/20 11:43:05;;;;;;;11.18;5.15;;;;;;;;;;5091944;28;20028;-65
2022/05/20 11:45:55;;;;;;;11.43;4.65;;;;;;;;;;5089998;28;20099;-65
2022/05/20 11:48:25;;;;;;;12.88;5.25;;;;;;;;;;5094289;28;20067;-67
2022/05/20 11:51:00;;;;;;;11.10;6.50;;;;;;;;;;5093644;28;20145;-66
2022/05/20 11:53:31;;;;;;;10.77;6.90;;;;;;;;;;5094484;28;20044;-67
2022/05/20 11:55:57;;;;;;;15.85;6.70;;;;;;;;;;5093831;28;20431;-67
2022/05/20 11:58:29;;;;;;;16.25;7.28;;;;;;;;;;5090357;28;20028;-67
2022/05/20 12:00:55;;;;;;;14.25;7.68;;;;;;;;;;5084908;28;20040;-68
2022/05/20 12:03:29;;;;;;;15.30;8.82;;;;;;;;;;5092508;28;20493;-68
2022/05/20 12:05:55;;;;;;;16.40;7.80;;;;;;;;;;5084426;28;20092;-67
2022/05/20 12:08:54;;;;;;;17.42;8.65;;;;;;;;;;5079355;28;20478;-68
2022/05/20 12:11:23;;;;;;;15.35;8.82;;;;;;;;;;5052094;28;20028;-68
2022/05/20 12:14:05;;;;;;;16.02;8.27;;;;;;;;;;5081414;28;20063;-66
2022/05/20 12:16:32;;;;;;;16.05;9.23;;;;;;;;;;5082986;28;20111;-68
2022/05/20 12:24:38;;;;;;;12.65;7.93;;;;;;;;;;5085569;28;20048;-78
2022/05/20 12:27:09;;;;;;;15.32;8.48;;;;;;;;;;5083836;28;21829;-75
2022/05/20 12:29:35;;;;;;;12.52;8.68;;;;;;;;;;5083763;28;20032;-77
2022/05/20 12:32:20;;;;;;;18.13;9.50;;;;;;;;;;5087318;28;20707;-77
2022/05/20 12:34:54;;;;;;;18.90;10.00;;;;;;;;;;5084104;28;20058;-76
2022/05/20 12:37:39;;;;;;;19.27;12.02;;;;;;;;;;5083873;28;20032;-74
2022/05/20 12:40:06;;;;;;;21.45;12.70;;;;;;;;;;5086125;28;20050;-73
2022/05/20 12:42:45;;;;;;;25.50;15.18;;;;;;;;;;5085023;28;20112;-73
2022/05/20 12:45:11;;;;;;;42.30;17.42;;;;;;;;;;5087196;28;20031;-72
2022/05/20 12:47:38;;;;;;;32.65;17.40;;;;;;;;;;5085359;28;20460;-74
2022/05/20 12:50:09;;;;;;;33.65;18.95;;;;;;;;;;5085358;28;20032;-73
2022/05/20 12:52:49;;;;;;;31.50;20.77;;;;;;;;;;5083046;28;20163;-73
2022/05/20 12:55:19;;;;;;;29.02;17.23;;;;;;;;;;5084983;28;20028;-73
2022/05/20 12:58:11;;;;;;;34.63;20.83;;;;;;;;;;5088585;28;20037;-73
2022/05/20 13:00:45;;;;;;;39.22;21.73;;;;;;;;;;5080265;28;20074;-74
2022/05/20 13:03:18;;;;;;;34.20;22.63;;;;;;;;;;5083720;28;20035;-73
2022/05/20 13:05:49;;;;;;;32.08;19.08;;;;;;;;;;5085015;28;20028;-75
2022/05/20 13:08:15;;;;;;;;;;;;;;;;;;5082306;28;20028;-74
2022/05/20 13:10:42;;;;;;;33.45;19.00;;;;;;;;;;5082893;28;19961;-74
2022/05/20 13:13:19;;;;;;;32.10;18.30;;;;;;;;;;5086011;28;20387;-74
2022/05/20 13:15:45;;;;;;;31.85;20.35;;;;;;;;;;5082462;28;20042;-73
2022/05/20 13:18:22;;;;;;;33.33;22.25;;;;;;;;;;5086163;28;20032;-73
2022/05/20 13:20:49;;;;;;;34.70;20.92;;;;;;;;;;5085764;28;20485;-73
2022/05/20 13:23:23;;;;;;;29.98;19.92;;;;;;;;;;5087425;28;20380;-76
2022/05/20 13:25:50;;;;;;;30.90;20.40;;;;;;;;;;5081042;28;20507;-73
2022/05/20 13:28:27;;;;;;;28.30;20.55;;;;;;;;;;5083194;28;20131;-73
2022/05/20 13:31:12;;;;;;;29.08;21.63;;;;;;;;;;5084274;28;20036;-73
2022/05/20 13:33:42;;;;;;;34.67;21.05;;;;;;;;;;5088150;28;20031;-74
2022/05/20 13:36:09;;;;;;;35.93;20.73;;;;;;;;;;5084151;28;20142;-72
2022/05/20 13:38:40;;;;;;;35.70;22.13;;;;;;;;;;5079148;28;20024;-74
2022/05/20 13:41:06;;;;;;;44.75;23.10;;;;;;;;;;5076992;28;20056;-73
2022/05/20 13:43:35;;;;;;;36.05;23.95;;;;;;;;;;5083745;28;20117;-72
2022/05/20 13:51:40;;;;;;;52.90;30.15;;;;;;;;;;5083840;28;20038;-73
2022/05/20 13:54:09;;;;;;;46.60;29.75;;;;;;;;;;5085773;28;20478;-73
2022/05/20 13:56:36;;;;;;;60.10;33.75;;;;;;;;;;5083651;28;20453;-73
2022/05/20 13:59:06;;;;;;;70.78;32.50;;;;;;;;;;5082117;28;20036;-73
2022/05/20 14:01:32;;;;;;;54.97;31.23;;;;;;;;;;5080027;28;20028;-73
2022/05/20 14:04:00;;;;;;;90.43;34.30;;;;;;;;;;5085177;28;20015;-73
2022/05/20 14:06:27;;;;;;;60.42;33.85;;;;;;;;;;5077239;28;20120;-73
2022/05/20 14:08:58;;;;;;;77.43;36.33;;;;;;;;;;5077853;28;20032;-74
2022/05/20 14:11:29;;;;;;;73.72;36.13;;;;;;;;;;5079019;28;20038;-73
2022/05/20 14:13:59;;;;;;;74.65;35.50;;;;;;;;;;5080863;28;20124;-72
2022/05/20 14:16:29;;;;;;;74.28;37.00;;;;;;;;;;5081742;28;20046;-73
2022/05/20 14:19:01;;;;;;;73.53;38.83;;;;;;;;;;5080861;28;20477;-72
2022/05/20 14:21:30;;;;;;;80.30;41.17;;;;;;;;;;5078321;28;20028;-75
2022/05/20 14:23:59;;;;;;;89.85;42.58;;;;;;;;;;5079368;28;20612;-73
2022/05/20 14:26:28;;;;;;;101.53;45.13;;;;;;;;;;5081516;28;20070;-72
2022/05/20 14:29:00;;;;;;;87.38;43.25;;;;;;;;;;5080000;28;20028;-73
2022/05/20 14:31:29;;;;;;;87.65;42.78;;;;;;;;;;5083270;28;20023;-73
2022/05/20 14:34:03;;;;;;;107.65;47.67;;;;;;;;;;5084157;28;20020;-72
2022/05/20 14:36:29;;;;;;;111.07;49.03;;;;;;;;;;5084478;28;20032;-73
2022/05/20 14:38:57;;;;;;;101.40;47.85;;;;;;;;;;5081835;28;20032;-74
2022/05/20 14:41:25;;;;;;;100.55;47.50;;;;;;;;;;5081802;28;20035;-74
2022/05/20 14:43:53;;;;;;;86.18;44.55;;;;;;;;;;5085982;28;20465;-73
2022/05/20 14:49:29;;;;;;;88.07;45.13;;;;;;;;;;5081189;28;20054;-74
2022/05/20 14:51:55;;;;;;;95.00;48.00;;;;;;;;;;5082242;28;20053;-74
2022/05/20 14:54:26;;;;;;;100.28;49.88;;;;;;;;;;5084728;28;20023;-74
2022/05/20 14:56:54;;;;;;;99.68;47.00;;;;;;;;;;5082115;28;20096;-72
2022/05/20 14:59:33;;;;;;;89.68;45.83;;;;;;;;;;5085873;28;20054;-73
2022/05/20 15:02:00;;;;;;;97.03;47.55;;;;;;;;;;5082163;28;20031;-73
2022/05/20 15:04:26;;;;;;;86.65;43.88;;;;;;;;;;5090036;28;20602;-73
2022/05/20 15:06:53;;;;;;;89.57;45.75;;;;;;;;;;5089111;28;20493;-73
2022/05/20 15:09:23;;;;;;;49.60;28.02;;;;;;;;;;5079405;28;20055;-72
2022/05/20 15:11:50;;;;;;;29.65;15.13;;;;;;;;;;5084967;28;20092;-77
2022/05/20 15:14:16;;;;;;;22.65;11.95;;;;;;;;;;5084540;28;20102;-75
2022/05/20 15:16:42;;;;;;;18.23;9.88;;;;;;;;;;5086449;28;20334;-77
2022/05/20 15:19:11;;;;;;;16.23;7.93;;;;;;;;;;5086573;28;20120;-75
2022/05/20 15:21:37;;;;;;;17.17;8.75;;;;;;;;;;5085609;28;20043;-78